createdAt,value
2023-01-03T00:00:39.602Z,6.20
2023-01-03T00:03:27.687Z,7.10
2023-01-03T00:05:55.541Z,7.80
2023-01-03T00:08:23.984Z,7.10
2023-01-03T00:10:51.895Z,6.20
2023-01-03T00:13:19.638Z,7.50
2023-01-03T00:15:47.693Z,6.70
2023-01-03T00:18:15.477Z,6.80
2023-01-03T00:20:43.841Z,8.60
2023-01-03T00:23:12.327Z,5.50
2023-01-03T00:25:40.123Z,6.20
2023-01-03T00:28:07.993Z,8.30
2023-01-03T00:30:36.634Z,8.30
2023-01-03T00:33:05.016Z,9.70
2023-01-03T00:35:33.275Z,9.10
2023-01-03T00:38:01.317Z,9.20
2023-01-03T00:40:29.113Z,7.50
2023-01-03T00:43:15.939Z,8.40
2023-01-03T00:45:44.057Z,7.60
2023-01-03T00:48:11.967Z,8.30
2023-01-03T00:50:39.954Z,7.60
2023-01-03T00:53:08.117Z,8.10
2023-01-03T00:55:36.469Z,7.40
2023-01-03T00:58:04.299Z,8.40
2023-01-03T01:00:32.227Z,6.60
2023-01-03T01:03:01.419Z,7.00
2023-01-03T01:05:30.279Z,7.10
2023-01-03T01:07:58.950Z,7.50
2023-01-03T01:10:26.967Z,7.20
2023-01-03T01:12:56.486Z,7.90
2023-01-03T01:15:24.750Z,8.70
2023-01-03T01:17:52.712Z,7.50
2023-01-03T01:20:20.679Z,6.50
2023-01-03T01:22:48.572Z,6.90
2023-01-03T01:25:16.393Z,7.30
2023-01-03T01:27:44.281Z,6.10
2023-01-03T01:30:12.450Z,6.50
2023-01-03T01:32:40.824Z,7.10
2023-01-03T01:35:09.041Z,5.60
2023-01-03T01:37:36.828Z,6.80
2023-01-03T01:40:05.146Z,6.00
2023-01-03T01:42:51.945Z,6.80
2023-01-03T01:47:59.919Z,5.80
2023-01-03T01:50:34.988Z,9.10
2023-01-03T01:53:06.843Z,5.30
2023-01-03T01:55:43.466Z,6.60
2023-01-03T01:58:12.863Z,6.60
2023-01-03T02:00:42.171Z,7.20
2023-01-03T02:03:10.831Z,9.50
2023-01-03T02:05:41.622Z,5.80
2023-01-03T02:08:09.698Z,6.80
2023-01-03T02:10:43.739Z,6.90
2023-01-03T02:13:14.377Z,6.30
2023-01-03T02:15:50.577Z,5.30
2023-01-03T02:18:37.340Z,5.00
2023-01-03T02:21:15.677Z,3.70
2023-01-03T02:24:13.932Z,6.20
2023-01-03T02:26:54.227Z,4.30
2023-01-03T02:29:37.192Z,4.20
2023-01-03T02:32:13.238Z,4.40
2023-01-03T02:34:58.147Z,4.20
2023-01-03T02:37:25.892Z,3.30
2023-01-03T02:40:06.367Z,4.40
2023-01-03T02:43:01.272Z,3.30
2023-01-03T02:45:46.906Z,3.90
2023-01-03T02:48:21.784Z,4.90
2023-01-03T02:50:52.192Z,1.90
2023-01-03T02:53:24.872Z,2.50
2023-01-03T02:55:53.436Z,3.40
2023-01-03T02:58:23.327Z,3.80
2023-01-03T03:00:53.164Z,4.70
2023-01-03T03:03:22.256Z,5.10
2023-01-03T03:05:54.546Z,3.70
2023-01-03T03:08:22.439Z,5.80
2023-01-03T03:11:09.326Z,5.40
2023-01-03T03:13:37.049Z,4.40
2023-01-03T03:16:07.494Z,5.90
2023-01-03T03:18:47.565Z,5.20
2023-01-03T03:21:35.600Z,6.00
2023-01-03T03:24:27.525Z,2.90
2023-01-03T03:26:56.320Z,4.00
2023-01-03T03:29:26.558Z,3.10
2023-01-03T03:31:55.179Z,4.30
2023-01-03T03:34:28.369Z,5.60
2023-01-03T03:36:59.208Z,3.80
2023-01-03T03:39:47.185Z,4.90
2023-01-03T03:42:40.085Z,4.20
2023-01-03T03:45:15.540Z,5.00
2023-01-03T03:47:47.247Z,4.40
2023-01-03T03:50:22.067Z,4.40
2023-01-03T03:52:51.974Z,8.90
2023-01-03T03:55:25.420Z,5.00
2023-01-03T03:57:57.647Z,3.60
2023-01-03T04:00:28.260Z,6.80
2023-01-03T04:02:57.670Z,4.90
2023-01-03T04:05:27.681Z,8.20
2023-01-03T04:07:55.555Z,7.30
2023-01-03T04:10:24.213Z,6.90
2023-01-03T04:12:52.540Z,5.80
2023-01-03T04:15:20.287Z,5.80
2023-01-03T04:17:48.061Z,5.10
2023-01-03T04:20:16.229Z,6.40
2023-01-03T04:22:44.249Z,8.00
2023-01-03T04:25:12.073Z,7.80
2023-01-03T04:27:40.441Z,7.70
2023-01-03T04:30:08.916Z,7.30
2023-01-03T04:32:36.884Z,10.30
2023-01-03T04:35:05.141Z,6.80
2023-01-03T04:37:33.435Z,10.80
2023-01-03T04:40:01.170Z,12.90
2023-01-03T04:42:47.607Z,9.90
2023-01-03T04:45:15.381Z,7.00
2023-01-03T04:47:43.434Z,11.90
2023-01-03T04:50:11.181Z,8.30
2023-01-03T04:52:38.961Z,8.00
2023-01-03T04:55:07.357Z,8.90
2023-01-03T04:57:35.982Z,8.20
2023-01-03T05:00:04.924Z,7.00
2023-01-03T05:02:32.824Z,7.70
2023-01-03T05:05:01.157Z,8.70
2023-01-03T05:07:29.229Z,11.20
2023-01-03T05:09:57.201Z,12.30
2023-01-03T05:12:25.478Z,8.40
2023-01-03T05:14:53.650Z,9.20
2023-01-03T05:17:21.391Z,9.90
2023-01-03T05:20:08.235Z,10.40
2023-01-03T05:22:54.827Z,11.00
2023-01-03T05:25:41.438Z,10.00
2023-01-03T05:28:15.249Z,10.20
2023-01-03T05:30:45.305Z,12.70
2023-01-03T05:33:13.648Z,12.90
2023-01-03T05:35:45.384Z,13.30
2023-01-03T05:38:14.088Z,11.10
2023-01-03T05:40:42.211Z,11.10
2023-01-03T05:43:10.320Z,12.20
2023-01-03T05:45:38.779Z,12.10
2023-01-03T05:48:07.304Z,14.30
2023-01-03T05:50:35.348Z,12.40
2023-01-03T05:53:04.027Z,10.40
2023-01-03T05:55:31.757Z,11.00
2023-01-03T05:57:59.519Z,9.90
2023-01-03T06:00:27.425Z,11.90
2023-01-03T06:02:55.954Z,10.90
2023-01-03T06:05:24.411Z,11.40
2023-01-03T06:07:52.224Z,10.20
2023-01-03T06:10:20.052Z,11.30
2023-01-03T06:12:48.033Z,11.50
2023-01-03T06:15:15.910Z,10.80
2023-01-03T06:17:58.132Z,12.60
2023-01-03T06:20:26.974Z,11.10
2023-01-03T06:22:55.522Z,12.90
2023-01-03T06:25:24.028Z,11.60
2023-01-03T06:27:51.858Z,11.80
2023-01-03T06:30:20.829Z,9.90
2023-01-03T06:32:48.829Z,11.40
2023-01-03T06:35:16.821Z,10.80
2023-01-03T06:37:44.726Z,8.70
2023-01-03T06:40:12.893Z,8.80
2023-01-03T06:42:43.055Z,10.30
2023-01-03T06:45:31.216Z,9.30
2023-01-03T06:48:22.534Z,11.00
2023-01-03T06:51:09.164Z,8.00
2023-01-03T06:53:38.461Z,8.90
2023-01-03T06:56:06.497Z,10.70
2023-01-03T06:58:34.763Z,9.60
2023-01-03T07:01:03.565Z,9.40
2023-01-03T07:03:32.399Z,8.90
2023-01-03T07:06:00.319Z,10.30
2023-01-03T07:08:28.790Z,7.70
2023-01-03T07:10:56.839Z,12.50
2023-01-03T07:13:44.015Z,10.20
2023-01-03T07:16:20.229Z,8.50
2023-01-03T07:18:54.632Z,12.20
2023-01-03T07:21:27.319Z,7.90
2023-01-03T07:23:56.306Z,9.30
2023-01-03T07:26:25.393Z,12.90
2023-01-03T07:28:53.173Z,12.50
2023-01-03T07:31:21.155Z,11.50
2023-01-03T07:33:49.233Z,13.50
2023-01-03T07:36:17.502Z,13.40
2023-01-03T07:38:45.892Z,13.50
2023-01-03T07:41:14.393Z,11.60
2023-01-03T07:43:46.651Z,12.20
2023-01-03T07:46:19.296Z,10.80
2023-01-03T07:48:49.151Z,10.30
2023-01-03T07:51:17.941Z,10.80
2023-01-03T07:53:46.568Z,8.80
2023-01-03T07:56:20.134Z,10.00
2023-01-03T07:58:50.293Z,11.70
2023-01-03T08:01:19.946Z,9.00
2023-01-03T08:03:48.605Z,9.50
2023-01-03T08:06:18.118Z,8.70
2023-01-03T08:09:06.587Z,9.80
2023-01-03T08:11:53.584Z,9.30
2023-01-03T08:16:55.388Z,8.40
2023-01-03T08:19:24.349Z,11.00
2023-01-03T08:21:53.026Z,20.60
2023-01-03T08:24:21.314Z,17.30
2023-01-03T08:26:49.469Z,13.20
2023-01-03T08:29:17.946Z,15.30
2023-01-03T08:31:56.129Z,12.70
2023-01-03T08:34:29.750Z,13.60
2023-01-03T08:37:03.571Z,9.10
2023-01-03T08:39:37.701Z,21.80
2023-01-03T08:42:07.814Z,28.00
2023-01-03T08:44:36.007Z,33.60
2023-01-03T08:47:08.051Z,12.70
2023-01-03T08:49:36.616Z,19.90
2023-01-03T08:52:04.888Z,20.60
2023-01-03T08:54:32.960Z,11.30
2023-01-03T08:57:01.247Z,11.60
2023-01-03T08:59:29.134Z,9.40
2023-01-03T09:02:00.835Z,14.50
2023-01-03T09:04:28.902Z,18.00
2023-01-03T09:06:57.514Z,22.80
2023-01-03T09:09:25.568Z,22.60
2023-01-03T09:11:53.976Z,20.40
2023-01-03T09:14:22.283Z,16.20
2023-01-03T09:16:50.394Z,15.90
2023-01-03T09:19:18.317Z,14.10
2023-01-03T09:21:46.358Z,12.40
2023-01-03T09:24:14.415Z,14.40
2023-01-03T09:26:42.185Z,20.10
2023-01-03T09:29:09.907Z,11.80
2023-01-03T09:31:40.061Z,13.20
2023-01-03T09:34:08.543Z,30.70
2023-01-03T09:36:38.633Z,22.50
2023-01-03T09:39:06.628Z,24.20
2023-01-03T09:41:35.154Z,22.90
2023-01-03T09:44:05.135Z,13.60
2023-01-03T09:46:33.943Z,8.20
2023-01-03T09:49:02.494Z,8.60
2023-01-03T09:51:50.479Z,7.70
2023-01-03T09:54:48.915Z,11.50
2023-01-03T09:57:37.715Z,6.70
2023-01-03T10:00:50.832Z,10.10
2023-01-03T10:03:46.383Z,17.60
2023-01-03T10:06:36.809Z,12.30
2023-01-03T10:09:19.766Z,14.00
2023-01-03T10:11:50.584Z,11.10
2023-01-03T10:14:25.930Z,12.90
2023-01-03T10:17:13.908Z,11.00
2023-01-03T10:19:50.813Z,8.90
2023-01-03T10:22:24.420Z,12.80
2023-01-03T10:24:58.539Z,17.10
2023-01-03T10:27:27.578Z,19.80
2023-01-03T10:29:57.728Z,18.30
2023-01-03T10:32:28.796Z,15.30
2023-01-03T10:35:15.806Z,18.50
2023-01-03T10:40:12.255Z,5.50
2023-01-03T10:42:41.335Z,8.20
2023-01-03T10:45:09.620Z,6.10
2023-01-03T10:47:38.099Z,8.90
2023-01-03T10:50:06.543Z,5.60
2023-01-03T10:52:37.339Z,5.90
2023-01-03T10:55:13.585Z,18.30
2023-01-03T10:57:48.830Z,11.50
2023-01-03T11:00:32.263Z,9.30
2023-01-03T11:03:12.723Z,8.50
2023-01-03T11:05:42.123Z,7.20
2023-01-03T11:08:18.011Z,10.40
2023-01-03T11:10:59.528Z,8.20
2023-01-03T11:13:29.746Z,14.10
2023-01-03T11:15:58.971Z,9.50
2023-01-03T11:18:27.957Z,9.90
2023-01-03T11:21:07.316Z,10.30
2023-01-03T11:23:35.364Z,7.10
2023-01-03T11:26:22.305Z,6.70
2023-01-03T11:29:10.451Z,5.80
2023-01-03T11:31:51.862Z,7.10
2023-01-03T11:34:26.427Z,7.00
2023-01-03T11:37:13.873Z,4.30
2023-01-03T11:39:50.827Z,6.50
2023-01-03T11:42:37.649Z,6.90
2023-01-03T11:45:20.028Z,5.10
2023-01-03T11:48:08.396Z,6.30
2023-01-03T11:50:58.173Z,6.10
2023-01-03T11:53:28.691Z,7.30
2023-01-03T11:56:19.709Z,8.10
2023-01-03T11:58:53.926Z,7.50
2023-01-03T12:01:27.789Z,7.10
2023-01-03T12:04:07.828Z,8.50
2023-01-03T12:06:38.725Z,11.90
2023-01-03T12:09:13.787Z,13.20
2023-01-03T12:11:41.607Z,12.20
2023-01-03T12:14:09.358Z,8.20
2023-01-03T12:16:40.323Z,10.10
2023-01-03T12:19:28.562Z,9.70
2023-01-03T12:22:06.052Z,11.10
2023-01-03T12:24:36.999Z,6.50
2023-01-03T12:27:10.565Z,7.20
2023-01-03T12:30:14.318Z,6.60
2023-01-03T12:32:49.537Z,9.90
2023-01-03T12:35:26.725Z,17.30
2023-01-03T12:37:55.200Z,13.70
2023-01-03T12:40:34.252Z,24.90
2023-01-03T12:43:20.731Z,12.20
2023-01-03T12:46:06.977Z,14.10
2023-01-03T12:48:57.427Z,15.50
2023-01-03T12:51:25.558Z,4.70
2023-01-03T12:54:02.833Z,8.30
2023-01-03T12:56:47.340Z,12.50
2023-01-03T12:59:21.144Z,8.40
2023-01-03T13:01:53.768Z,7.70
2023-01-03T13:04:32.131Z,7.20
2023-01-03T13:07:13.715Z,10.60
2023-01-03T13:09:45.239Z,10.00
2023-01-03T13:12:15.243Z,5.70
2023-01-03T13:14:56.985Z,5.20
2023-01-03T13:17:26.730Z,6.80
2023-01-03T13:20:21.752Z,6.00
2023-01-03T13:22:54.475Z,7.40
2023-01-03T13:25:40.055Z,5.60
2023-01-03T13:28:30.154Z,15.60
2023-01-03T13:31:21.049Z,20.60
2023-01-03T13:33:48.913Z,14.50
2023-01-03T13:36:17.095Z,14.60
2023-01-03T13:38:45.590Z,9.30
2023-01-03T13:41:28.891Z,9.50
2023-01-03T13:44:06.743Z,6.90
2023-01-03T13:46:35.354Z,7.70
2023-01-03T13:49:05.675Z,7.80
2023-01-03T13:51:33.578Z,12.80
2023-01-03T13:54:24.687Z,10.70
2023-01-03T13:56:52.863Z,14.80
2023-01-03T13:59:35.663Z,14.50
2023-01-03T14:02:06.584Z,15.20
2023-01-03T14:04:37.652Z,23.40
2023-01-03T14:07:24.371Z,17.70
2023-01-03T14:09:55.391Z,14.00
2023-01-03T14:12:33.496Z,13.20
2023-01-03T14:15:09.481Z,13.80
2023-01-03T14:17:46.495Z,17.70
2023-01-03T14:20:21.863Z,14.10
2023-01-03T14:22:50.972Z,10.40
2023-01-03T14:25:37.616Z,13.10
2023-01-03T14:28:15.067Z,12.10
2023-01-03T14:30:44.393Z,14.30
2023-01-03T14:33:16.334Z,12.20
2023-01-03T14:35:44.812Z,11.30
2023-01-03T14:38:22.060Z,10.50
2023-01-03T14:43:21.729Z,13.20
2023-01-03T14:45:57.396Z,20.00
2023-01-03T14:48:26.319Z,25.10
2023-01-03T14:50:55.477Z,27.70
2023-01-03T14:53:23.755Z,24.90
2023-01-03T14:55:53.925Z,21.40
2023-01-03T14:58:39.467Z,20.90
2023-01-03T15:01:08.709Z,22.20
2023-01-03T15:03:38.169Z,18.20
2023-01-03T15:06:16.862Z,13.60
2023-01-03T15:08:45.151Z,14.80
2023-01-03T15:11:21.745Z,14.80
2023-01-03T15:13:56.027Z,12.10
2023-01-03T15:16:27.137Z,12.70
2023-01-03T15:19:04.238Z,22.30
2023-01-03T15:21:34.358Z,20.70
2023-01-03T15:24:03.133Z,15.80
2023-01-03T15:26:39.100Z,14.30
2023-01-03T15:29:28.773Z,16.90
2023-01-03T15:31:58.352Z,16.70
2023-01-03T15:34:29.729Z,18.00
2023-01-03T15:36:59.757Z,24.80
2023-01-03T15:39:43.129Z,24.30
2023-01-03T15:42:51.953Z,21.80
2023-01-03T15:45:26.183Z,18.30
2023-01-03T15:47:59.719Z,15.80
2023-01-03T15:50:34.219Z,17.90
2023-01-03T15:53:02.166Z,15.70
2023-01-03T15:55:30.173Z,15.20
2023-01-03T15:57:58.264Z,26.70
2023-01-03T16:00:27.151Z,29.80
2023-01-03T16:02:55.359Z,30.50
2023-01-03T16:05:24.103Z,22.70
2023-01-03T16:07:52.401Z,15.00
2023-01-03T16:10:22.185Z,14.50
2023-01-03T16:12:51.864Z,17.00
2023-01-03T16:15:21.435Z,21.90
2023-01-03T16:17:52.652Z,23.50
2023-01-03T16:20:21.640Z,20.70
2023-01-03T16:23:00.587Z,20.60
2023-01-03T16:25:31.188Z,20.90
2023-01-03T16:27:59.263Z,18.80
2023-01-03T16:30:27.964Z,19.90
2023-01-03T16:32:55.904Z,18.30
2023-01-03T16:35:24.517Z,19.40
2023-01-03T16:37:52.679Z,16.60
2023-01-03T16:40:21.362Z,16.90
2023-01-03T16:42:49.505Z,17.20
2023-01-03T16:45:17.662Z,17.00
2023-01-03T16:47:45.648Z,23.90
2023-01-03T16:50:18.863Z,29.10
2023-01-03T16:52:48.194Z,28.30
2023-01-03T16:55:17.257Z,18.00
2023-01-03T16:57:50.404Z,21.70
2023-01-03T17:00:32.885Z,23.20
2023-01-03T17:03:02.104Z,18.60
2023-01-03T17:05:35.789Z,15.60
2023-01-03T17:08:08.539Z,14.10
2023-01-03T17:10:38.768Z,13.50
2023-01-03T17:13:12.541Z,14.50
2023-01-03T17:15:42.288Z,12.50
2023-01-03T17:18:30.208Z,13.20
2023-01-03T17:21:03.819Z,11.90
2023-01-03T17:23:35.984Z,12.90
2023-01-03T17:26:04.890Z,12.20
2023-01-03T17:28:33.733Z,10.90
2023-01-03T17:31:02.004Z,12.40
2023-01-03T17:33:34.101Z,11.50
2023-01-03T17:36:02.642Z,10.60
2023-01-03T17:38:32.015Z,8.70
2023-01-03T17:41:00.360Z,9.90
2023-01-03T17:43:29.148Z,10.60
2023-01-03T17:46:23.442Z,10.30
2023-01-03T17:49:11.584Z,12.30
2023-01-03T17:51:40.186Z,10.00
2023-01-03T17:54:09.763Z,14.40
2023-01-03T17:56:40.653Z,12.50
2023-01-03T17:59:10.705Z,13.10
2023-01-03T18:01:40.341Z,14.20
2023-01-03T18:04:09.443Z,10.70
2023-01-03T18:06:40.463Z,13.20
2023-01-03T18:09:13.140Z,15.50
2023-01-03T18:11:44.678Z,17.30
2023-01-03T18:14:15.011Z,15.30
2023-01-03T18:16:43.603Z,14.90
2023-01-03T18:19:12.046Z,19.90
2023-01-03T18:21:40.271Z,22.10
2023-01-03T18:24:18.807Z,15.70
2023-01-03T18:26:51.738Z,16.00
2023-01-03T18:29:19.898Z,12.70
2023-01-03T18:31:49.174Z,17.20
2023-01-03T18:34:17.714Z,15.10
2023-01-03T18:36:49.683Z,14.20
2023-01-03T18:39:28.825Z,15.00
2023-01-03T18:42:17.571Z,17.70
2023-01-03T18:44:46.044Z,16.30
2023-01-03T18:47:14.710Z,17.40
2023-01-03T18:49:43.492Z,15.90
2023-01-03T18:52:24.470Z,19.70
2023-01-03T18:54:54.817Z,19.40
2023-01-03T18:57:27.834Z,17.70
2023-01-03T18:59:56.975Z,17.20
2023-01-03T19:02:25.455Z,17.30
2023-01-03T19:04:54.137Z,18.10
2023-01-03T19:07:29.123Z,15.70
2023-01-03T19:09:57.763Z,17.90
2023-01-03T19:12:26.329Z,19.30
2023-01-03T19:14:56.262Z,28.10
2023-01-03T19:17:24.424Z,37.20
2023-01-03T19:19:52.391Z,28.20
2023-01-03T19:22:20.360Z,30.70
2023-01-03T19:24:48.532Z,36.50
2023-01-03T19:27:19.684Z,59.30
2023-01-03T19:29:49.304Z,64.20
2023-01-03T19:32:19.144Z,58.80
2023-01-03T19:34:48.801Z,58.90
2023-01-03T19:37:19.753Z,100.20
2023-01-03T19:39:49.320Z,69.90
2023-01-03T19:42:38.718Z,65.40
2023-01-03T19:45:16.623Z,58.30
2023-01-03T19:47:44.640Z,67.40
2023-01-03T19:50:20.846Z,52.60
2023-01-03T19:52:49.143Z,40.50
2023-01-03T19:55:18.956Z,32.90
2023-01-03T19:57:48.966Z,29.30
2023-01-03T20:00:25.742Z,31.70
2023-01-03T20:02:57.113Z,27.90
2023-01-03T20:05:27.406Z,33.70
2023-01-03T20:07:55.682Z,32.30
2023-01-03T20:10:26.106Z,27.30
2023-01-03T20:12:56.161Z,28.90
2023-01-03T20:15:26.667Z,29.10
2023-01-03T20:17:57.733Z,28.60
2023-01-03T20:20:33.432Z,22.30
2023-01-03T20:23:09.432Z,26.90
2023-01-03T20:25:39.200Z,31.60
2023-01-03T20:28:07.379Z,31.70
2023-01-03T20:30:36.406Z,28.70
2023-01-03T20:33:05.791Z,34.00
2023-01-03T20:38:27.588Z,27.20
2023-01-03T20:40:56.604Z,24.90
2023-01-03T20:43:25.596Z,33.00
2023-01-03T20:45:55.335Z,29.60
2023-01-03T20:48:26.532Z,26.00
2023-01-03T20:50:56.225Z,30.40
2023-01-03T20:53:25.372Z,28.10
2023-01-03T20:55:53.415Z,24.20
2023-01-03T20:58:25.595Z,28.40
2023-01-03T21:01:02.121Z,27.90
2023-01-03T21:03:33.782Z,30.40
2023-01-03T21:06:22.184Z,25.10
2023-01-03T21:08:56.749Z,29.60
2023-01-03T21:11:26.802Z,28.20
2023-01-03T21:13:55.749Z,27.30
2023-01-03T21:16:28.336Z,30.20
2023-01-03T21:19:00.849Z,27.00
2023-01-03T21:21:29.847Z,26.50
2023-01-03T21:23:58.108Z,27.90
2023-01-03T21:26:27.010Z,31.80
2023-01-03T21:28:56.721Z,30.50
2023-01-03T21:31:24.923Z,30.00
2023-01-03T21:33:53.000Z,29.90
2023-01-03T21:36:25.452Z,32.20
2023-01-03T21:38:54.117Z,29.70
2023-01-03T21:41:24.453Z,33.10
2023-01-03T21:43:59.168Z,34.30
2023-01-03T21:46:27.895Z,34.40
2023-01-03T21:48:56.845Z,31.20
2023-01-03T21:51:37.280Z,27.90
2023-01-03T21:54:07.421Z,26.60
2023-01-03T21:56:45.421Z,27.00
2023-01-03T21:59:17.392Z,29.00
2023-01-03T22:02:05.610Z,27.90
2023-01-03T22:04:34.130Z,27.50
2023-01-03T22:07:02.560Z,29.30
2023-01-03T22:09:50.692Z,27.30
2023-01-03T22:12:19.647Z,27.70
2023-01-03T22:14:50.145Z,27.90
2023-01-03T22:17:18.588Z,28.10
2023-01-03T22:19:46.518Z,24.70
2023-01-03T22:22:14.780Z,27.20
2023-01-03T22:24:42.968Z,28.00
2023-01-03T22:27:11.113Z,28.40
2023-01-03T22:29:39.304Z,26.20
2023-01-03T22:32:07.740Z,26.60
2023-01-03T22:34:38.008Z,27.60
2023-01-03T22:37:05.960Z,26.00
2023-01-03T22:39:34.244Z,25.80
2023-01-03T22:42:02.834Z,29.00
2023-01-03T22:44:30.798Z,29.90
2023-01-03T22:46:58.875Z,30.80
2023-01-03T22:49:27.643Z,31.90
2023-01-03T22:51:58.084Z,26.50
2023-01-03T22:54:26.653Z,26.20
2023-01-03T22:56:55.674Z,29.80
2023-01-03T22:59:24.944Z,28.60
2023-01-03T23:01:53.332Z,28.20
2023-01-03T23:04:22.964Z,27.80
2023-01-03T23:06:51.209Z,28.40
2023-01-03T23:09:19.070Z,26.90
2023-01-03T23:12:05.932Z,29.10
2023-01-03T23:14:34.140Z,27.60
2023-01-03T23:17:22.620Z,27.90
2023-01-03T23:19:50.838Z,27.40
2023-01-03T23:22:18.634Z,35.70
2023-01-03T23:24:46.927Z,26.50
2023-01-03T23:27:14.807Z,27.30
2023-01-03T23:29:42.655Z,25.40
2023-01-03T23:32:10.731Z,27.70
2023-01-03T23:34:38.791Z,27.90
2023-01-03T23:37:06.974Z,29.00
2023-01-03T23:39:35.494Z,32.40
2023-01-03T23:42:03.362Z,33.10
2023-01-03T23:44:31.789Z,27.60
2023-01-03T23:46:59.738Z,25.90
2023-01-03T23:49:27.648Z,29.30
2023-01-03T23:51:55.695Z,29.10
2023-01-03T23:54:24.107Z,33.00
2023-01-03T23:56:52.032Z,25.80
2023-01-03T23:59:19.855Z,25.70
